createdAt,value
2022-11-09T00:03:33.537Z,74.91
2022-11-09T00:08:34.372Z,74.45
2022-11-09T00:13:37.657Z,74.89
2022-11-09T00:18:40.269Z,74.37
2022-11-09T00:23:41.290Z,73.89
2022-11-09T00:28:42.654Z,74.06
2022-11-09T00:33:48.185Z,74.88
2022-11-09T00:38:50.805Z,74.35
2022-11-09T00:43:52.398Z,74.66
2022-11-09T00:48:55.785Z,74.89
2022-11-09T00:53:58.501Z,74.10
2022-11-09T00:58:59.322Z,74.74
2022-11-09T01:04:01.793Z,74.36
2022-11-09T01:09:02.766Z,75.29
2022-11-09T01:14:05.307Z,75.56
2022-11-09T01:19:07.686Z,75.16
2022-11-09T01:24:08.654Z,75.32
2022-11-09T01:29:09.508Z,75.20
2022-11-09T01:34:11.652Z,74.09
2022-11-09T01:39:12.801Z,75.25
2022-11-09T01:44:15.886Z,75.45
2022-11-09T01:49:23.925Z,74.99
2022-11-09T01:54:30.082Z,75.08
2022-11-09T01:59:37.175Z,74.76
2022-11-09T02:04:44.523Z,74.84
2022-11-09T02:09:50.448Z,75.03
2022-11-09T02:14:55.780Z,74.56
2022-11-09T02:19:58.918Z,75.05
2022-11-09T02:25:01.241Z,74.72
2022-11-09T02:30:03.635Z,75.42
2022-11-09T02:35:05.313Z,74.98
2022-11-09T02:40:12.868Z,74.95
2022-11-09T02:45:13.757Z,74.97
2022-11-09T02:50:16.166Z,74.84
2022-11-09T02:55:18.600Z,75.17
2022-11-09T03:00:19.941Z,75.50
2022-11-09T03:05:20.984Z,75.66
2022-11-09T03:10:24.076Z,75.76
2022-11-09T03:15:25.573Z,75.59
2022-11-09T03:20:26.442Z,74.91
2022-11-09T03:25:29.241Z,75.80
2022-11-09T03:30:33.154Z,76.16
2022-11-09T03:35:34.322Z,75.85
2022-11-09T03:40:36.977Z,75.88
2022-11-09T03:45:38.102Z,76.17
2022-11-09T03:50:40.597Z,76.11
2022-11-09T03:55:42.907Z,76.52
2022-11-09T04:00:43.863Z,75.53
2022-11-09T04:05:44.646Z,76.08
2022-11-09T04:10:46.931Z,75.94
2022-11-09T04:15:47.714Z,76.11
2022-11-09T04:20:48.587Z,76.17
2022-11-09T04:25:50.867Z,76.46
2022-11-09T04:30:54.671Z,76.54
2022-11-09T04:35:55.515Z,76.59
2022-11-09T04:41:01.518Z,76.53
2022-11-09T04:46:02.438Z,75.62
2022-11-09T04:51:04.660Z,75.29
2022-11-09T04:56:08.250Z,75.39
2022-11-09T05:01:12.103Z,75.74
2022-11-09T05:06:30.298Z,75.18
2022-11-09T05:11:33.386Z,75.24
2022-11-09T05:16:35.301Z,75.84
2022-11-09T05:21:36.135Z,75.57
2022-11-09T05:26:41.341Z,75.01
2022-11-09T05:31:46.475Z,74.70
2022-11-09T05:36:50.081Z,74.85
2022-11-09T05:41:52.256Z,74.58
2022-11-09T05:46:53.081Z,74.60
2022-11-09T05:51:54.121Z,74.38
2022-11-09T05:56:56.268Z,75.02
2022-11-09T06:01:57.395Z,74.03
2022-11-09T06:06:58.486Z,73.96
2022-11-09T06:12:00.702Z,73.51
2022-11-09T06:17:01.529Z,74.13
2022-11-09T06:22:02.354Z,73.83
2022-11-09T06:27:04.906Z,73.62
2022-11-09T06:32:06.513Z,73.12
2022-11-09T06:37:07.359Z,73.02
2022-11-09T06:42:09.567Z,73.06
2022-11-09T06:47:10.392Z,72.95
2022-11-09T06:52:11.252Z,73.41
2022-11-09T06:57:13.375Z,73.04
2022-11-09T07:02:16.913Z,73.02
2022-11-09T07:07:17.953Z,73.34
2022-11-09T07:12:20.160Z,72.29
2022-11-09T07:17:20.939Z,72.59
2022-11-09T07:22:21.964Z,72.26
2022-11-09T07:27:27.923Z,72.81
2022-11-09T07:33:01.838Z,71.73
2022-11-09T07:37:49.955Z,71.75
2022-11-09T07:42:52.103Z,70.45
2022-11-09T07:47:56.685Z,69.98
2022-11-09T07:52:57.814Z,69.88
2022-11-09T07:58:01.138Z,69.79
2022-11-09T08:03:02.311Z,71.89
2022-11-09T08:08:05.341Z,70.93
2022-11-09T08:13:10.591Z,70.81
2022-11-09T08:18:14.126Z,70.19
2022-11-09T08:23:16.206Z,70.00
2022-11-09T08:28:18.742Z,70.89
2022-11-09T08:33:19.896Z,70.95
2022-11-09T08:38:21.030Z,71.37
2022-11-09T08:43:23.326Z,69.80
2022-11-09T08:48:24.261Z,69.35
2022-11-09T08:53:26.940Z,69.22
2022-11-09T08:58:29.083Z,69.15
2022-11-09T09:03:29.826Z,68.84
2022-11-09T09:08:30.656Z,68.74
2022-11-09T09:13:35.078Z,67.96
2022-11-09T09:18:38.680Z,67.32
2022-11-09T09:23:39.480Z,67.97
2022-11-09T09:28:41.769Z,67.47
2022-11-09T09:33:42.579Z,68.03
2022-11-09T09:38:43.347Z,69.98
2022-11-09T09:43:48.984Z,69.17
2022-11-09T09:48:54.599Z,68.70
2022-11-09T09:54:01.735Z,67.98
2022-11-09T09:59:08.381Z,68.64
2022-11-09T10:04:17.983Z,67.91
2022-11-09T10:09:28.843Z,68.23
2022-11-09T10:14:47.843Z,67.25
2022-11-09T10:20:03.718Z,67.34
2022-11-09T10:25:27.873Z,67.38
2022-11-09T10:30:35.734Z,66.99
2022-11-09T10:35:39.007Z,67.16
2022-11-09T10:40:45.114Z,66.03
2022-11-09T10:46:07.862Z,67.30
2022-11-09T10:51:34.480Z,66.70
2022-11-09T10:57:06.710Z,68.20
2022-11-09T11:02:47.868Z,68.56
2022-11-09T11:08:23.059Z,69.80
2022-11-09T11:13:42.672Z,69.45
2022-11-09T11:19:04.624Z,68.32
2022-11-09T11:24:24.295Z,67.90
2022-11-09T11:29:51.705Z,67.87
2022-11-09T11:35:17.719Z,67.29
2022-11-09T11:40:47.130Z,66.53
2022-11-09T11:46:15.669Z,67.25
2022-11-09T11:51:46.605Z,66.86
2022-11-09T11:57:15.682Z,66.45
2022-11-09T12:03:11.861Z,66.08
2022-11-09T12:08:44.590Z,66.91
2022-11-09T12:14:16.729Z,65.68
2022-11-09T12:19:47.246Z,66.79
2022-11-09T12:25:18.187Z,67.63
2022-11-09T12:30:49.386Z,68.57
2022-11-09T12:36:17.048Z,67.93
2022-11-09T12:41:39.676Z,67.38
2022-11-09T12:47:04.425Z,66.76
2022-11-09T12:52:28.409Z,67.90
2022-11-09T12:57:49.723Z,68.02
2022-11-09T13:03:21.020Z,67.64
2022-11-09T13:08:42.216Z,65.98
2022-11-09T13:14:33.826Z,65.87
2022-11-09T13:19:55.357Z,66.27
2022-11-09T13:25:47.242Z,65.81
2022-11-09T13:31:10.793Z,66.88
2022-11-09T13:36:30.012Z,67.62
2022-11-09T13:41:49.207Z,67.10
2022-11-09T13:47:23.302Z,66.66
2022-11-09T13:52:52.084Z,66.84
2022-11-09T13:58:20.186Z,66.92
2022-11-09T14:03:41.036Z,67.43
2022-11-09T14:09:02.107Z,67.34
2022-11-09T14:14:47.920Z,67.08
2022-11-09T14:20:20.330Z,68.02
2022-11-09T14:25:39.765Z,68.17
2022-11-09T14:30:59.435Z,69.14
2022-11-09T14:36:19.842Z,69.58
2022-11-09T14:41:39.432Z,69.54
2022-11-09T14:46:59.172Z,70.16
2022-11-09T14:52:27.319Z,70.98
2022-11-09T14:57:48.752Z,71.48
2022-11-09T15:03:26.577Z,73.07
2022-11-09T15:08:55.279Z,73.14
2022-11-09T15:14:23.593Z,74.24
2022-11-09T15:19:51.380Z,73.98
2022-11-09T15:25:24.148Z,74.24
2022-11-09T15:30:46.737Z,75.25
2022-11-09T15:36:20.335Z,75.59
2022-11-09T15:41:41.468Z,75.15
2022-11-09T15:47:02.484Z,75.41
2022-11-09T15:52:21.426Z,75.78
2022-11-09T15:57:42.439Z,76.43
2022-11-09T16:03:01.520Z,77.24
2022-11-09T16:08:21.215Z,76.55
2022-11-09T16:13:42.175Z,75.40
2022-11-09T16:19:01.780Z,75.29
2022-11-09T16:24:21.165Z,75.42
2022-11-09T16:29:41.844Z,75.61
2022-11-09T16:35:23.818Z,73.57
2022-11-09T16:40:42.070Z,74.06
2022-11-09T16:46:02.845Z,74.39
2022-11-09T16:51:22.910Z,74.53
2022-11-09T16:56:41.976Z,74.25
2022-11-09T17:02:02.956Z,76.47
2022-11-09T17:07:22.395Z,75.38
2022-11-09T17:12:41.740Z,74.55
2022-11-09T17:18:02.183Z,74.67
2022-11-09T17:23:21.639Z,74.18
2022-11-09T17:28:43.100Z,74.68
2022-11-09T17:34:04.192Z,74.70
2022-11-09T17:39:24.382Z,75.50
2022-11-09T17:44:43.485Z,75.15
2022-11-09T17:50:04.225Z,74.62
2022-11-09T17:55:23.840Z,75.22
2022-11-09T18:00:43.058Z,75.08
2022-11-09T18:06:03.601Z,75.02
2022-11-09T18:11:22.767Z,74.97
2022-11-09T18:16:41.906Z,74.58
2022-11-09T18:22:03.347Z,75.43
2022-11-09T18:27:29.923Z,74.51
2022-11-09T18:32:49.967Z,74.75
2022-11-09T18:38:13.252Z,75.33
2022-11-09T18:43:33.862Z,75.36
2022-11-09T18:48:54.463Z,74.69
2022-11-09T18:54:15.318Z,75.88
2022-11-09T18:59:37.799Z,76.04
2022-11-09T19:04:56.884Z,75.25
2022-11-09T19:10:17.569Z,75.39
2022-11-09T19:15:42.418Z,76.01
2022-11-09T19:21:02.877Z,76.05
2022-11-09T19:26:23.702Z,76.50
2022-11-09T19:31:44.517Z,76.98
2022-11-09T19:37:03.590Z,77.87
2022-11-09T19:42:24.236Z,79.09
2022-11-09T19:47:43.988Z,79.68
2022-11-09T19:53:03.656Z,80.96
2022-11-09T19:58:24.527Z,80.84
2022-11-09T20:03:44.060Z,81.42
2022-11-09T20:09:03.310Z,81.62
2022-11-09T20:14:24.149Z,82.26
2022-11-09T20:19:43.526Z,82.15
2022-11-09T20:25:03.344Z,83.35
2022-11-09T20:30:23.825Z,84.21
2022-11-09T20:35:46.835Z,84.38
2022-11-09T20:41:08.818Z,85.14
2022-11-09T20:46:35.432Z,84.69
2022-11-09T20:51:55.398Z,84.98
2022-11-09T20:57:14.857Z,85.29
2022-11-09T21:02:35.866Z,85.38
2022-11-09T21:07:55.127Z,84.91
2022-11-09T21:13:14.448Z,85.17
2022-11-09T21:18:35.742Z,85.08
2022-11-09T21:24:12.413Z,85.59
2022-11-09T21:29:49.224Z,85.85
2022-11-09T21:35:10.662Z,86.86
2022-11-09T21:40:29.914Z,87.28
2022-11-09T21:45:53.984Z,86.89
2022-11-09T21:51:14.595Z,87.65
2022-11-09T21:56:33.991Z,88.82
2022-11-09T22:01:53.309Z,88.86
2022-11-09T22:07:14.003Z,89.24
2022-11-09T22:12:51.098Z,88.57
2022-11-09T22:18:31.383Z,88.91
2022-11-09T22:23:51.884Z,88.84
2022-11-09T22:29:11.197Z,89.11
2022-11-09T22:34:30.901Z,89.54
2022-11-09T22:39:51.316Z,89.40
2022-11-09T22:45:11.241Z,89.48
2022-11-09T22:50:30.495Z,89.51
2022-11-09T22:55:54.570Z,90.05
2022-11-09T23:01:15.739Z,89.62
2022-11-09T23:06:35.799Z,89.92
2022-11-09T23:11:56.425Z,89.68
2022-11-09T23:17:29.679Z,90.04
2022-11-09T23:22:49.736Z,89.91
2022-11-09T23:28:12.911Z,90.48
2022-11-09T23:33:32.164Z,90.66
2022-11-09T23:38:51.927Z,90.38
2022-11-09T23:44:12.664Z,90.32
2022-11-09T23:49:32.097Z,90.12
2022-11-09T23:54:51.263Z,90.61
